createdAt,value
2023-02-20T00:00:09.523Z,100940.09
2023-02-20T00:03:15.197Z,100943.56
2023-02-20T00:06:18.232Z,100953.31
2023-02-20T00:09:20.876Z,100963.94
2023-02-20T00:12:23.727Z,100969.88
2023-02-20T00:15:26.402Z,100978.84
2023-02-20T00:18:29.675Z,100966.56
2023-02-20T00:21:32.438Z,100979.72
2023-02-20T00:24:35.310Z,100976.22
2023-02-20T00:27:37.927Z,100975.25
2023-02-20T00:30:41.732Z,100983.19
2023-02-20T00:33:44.597Z,100994.56
2023-02-20T00:36:47.497Z,101007.75
2023-02-20T00:39:50.184Z,101002.50
2023-02-20T00:42:53.526Z,101001.56
2023-02-20T00:45:56.190Z,101013.78
2023-02-20T00:48:59.801Z,101009.59
2023-02-20T00:52:17.290Z,101014.00
2023-02-20T00:55:21.533Z,101029.78
2023-02-20T00:58:24.500Z,101036.78
2023-02-20T01:01:28.019Z,101043.75
2023-02-20T01:04:30.719Z,101047.00
2023-02-20T01:07:33.590Z,101041.13
2023-02-20T01:10:38.712Z,101046.41
2023-02-20T01:13:41.594Z,101045.44
2023-02-20T01:16:46.017Z,101051.72
2023-02-20T01:19:49.266Z,101050.91
2023-02-20T01:22:55.257Z,101054.34
2023-02-20T01:25:58.156Z,101057.09
2023-02-20T01:29:00.982Z,101050.19
2023-02-20T01:32:05.999Z,101058.97
2023-02-20T01:35:09.533Z,101064.25
2023-02-20T01:38:12.664Z,101054.50
2023-02-20T01:41:15.332Z,101060.63
2023-02-20T01:44:24.839Z,101057.16
2023-02-20T01:47:28.714Z,101060.87
2023-02-20T01:50:42.439Z,101060.94
2023-02-20T01:53:45.814Z,101067.91
2023-02-20T01:56:50.177Z,101074.03
2023-02-20T01:59:56.896Z,101079.34
2023-02-20T02:03:08.796Z,101083.66
2023-02-20T02:06:14.636Z,101080.19
2023-02-20T02:09:33.755Z,101061.84
2023-02-20T02:12:38.019Z,101075.84
2023-02-20T02:15:40.575Z,101065.31
2023-02-20T02:19:07.680Z,101076.72
2023-02-20T02:22:49.453Z,101083.75
2023-02-20T02:25:52.324Z,101082.88
2023-02-20T02:29:27.318Z,101090.72
2023-02-20T02:32:51.380Z,101091.56
2023-02-20T02:36:22.226Z,101096.84
2023-02-20T02:39:44.351Z,101099.44
2023-02-20T02:42:54.011Z,101098.56
2023-02-20T02:46:06.252Z,101107.28
2023-02-20T02:49:32.832Z,101108.19
2023-02-20T02:52:49.096Z,101109.91
2023-02-20T02:55:53.480Z,101115.13
2023-02-20T02:58:58.533Z,101116.00
2023-02-20T03:02:05.277Z,101116.91
2023-02-20T03:05:13.396Z,101119.53
2023-02-20T03:08:31.056Z,101123.00
2023-02-20T03:11:36.022Z,101126.47
2023-02-20T03:15:05.425Z,101123.00
2023-02-20T03:18:10.450Z,101120.38
2023-02-20T03:21:22.597Z,101116.91
2023-02-20T03:24:29.407Z,101115.13
2023-02-20T03:27:50.967Z,101105.56
2023-02-20T03:31:07.063Z,101113.38
2023-02-20T03:34:35.321Z,101110.81
2023-02-20T03:38:00.224Z,101105.56
2023-02-20T03:41:23.319Z,101107.31
2023-02-20T03:44:28.349Z,101109.06
2023-02-20T03:47:35.623Z,101126.47
2023-02-20T03:50:39.086Z,101129.09
2023-02-20T03:53:45.024Z,101131.72
2023-02-20T03:56:55.991Z,101134.31
2023-02-20T04:00:05.563Z,101138.69
2023-02-20T04:03:23.704Z,101145.66
2023-02-20T04:06:31.830Z,101147.41
2023-02-20T04:09:37.649Z,101144.78
2023-02-20T04:12:44.127Z,101141.31
2023-02-20T04:15:48.592Z,101130.84
2023-02-20T04:18:51.757Z,101134.34
2023-02-20T04:21:58.206Z,101120.38
2023-02-20T04:25:16.196Z,101126.47
2023-02-20T04:28:20.712Z,101132.56
2023-02-20T04:31:24.862Z,101129.97
2023-02-20T04:34:27.637Z,101136.94
2023-02-20T04:37:30.911Z,101150.88
2023-02-20T04:40:34.812Z,101157.88
2023-02-20T04:43:37.693Z,101157.84
2023-02-20T04:46:43.637Z,101143.91
2023-02-20T04:49:46.728Z,101129.94
2023-02-20T04:52:50.952Z,101131.72
2023-02-20T04:55:54.115Z,101115.16
2023-02-20T04:58:57.692Z,101117.75
2023-02-20T05:02:02.151Z,101124.75
2023-02-20T05:05:06.940Z,101127.34
2023-02-20T05:08:10.068Z,101120.38
2023-02-20T05:13:19.531Z,101117.59
2023-02-20T05:16:22.778Z,101117.59
2023-02-20T05:19:25.385Z,101120.31
2023-02-20T05:22:28.376Z,101124.69
2023-02-20T05:25:31.657Z,101133.41
2023-02-20T05:28:34.796Z,101133.41
2023-02-20T05:31:37.406Z,101131.69
2023-02-20T05:34:40.263Z,101136.91
2023-02-20T05:37:43.353Z,101147.38
2023-02-20T05:40:46.197Z,101145.63
2023-02-20T05:43:49.293Z,101149.09
2023-02-20T05:46:55.475Z,101151.75
2023-02-20T05:49:58.547Z,101162.19
2023-02-20T05:53:01.453Z,101160.47
2023-02-20T05:56:04.142Z,101157.84
2023-02-20T05:59:07.155Z,101162.22
2023-02-20T06:02:09.893Z,101162.22
2023-02-20T06:05:12.777Z,101163.06
2023-02-20T06:08:15.350Z,101163.91
2023-02-20T06:11:18.365Z,101166.53
2023-02-20T06:14:22.886Z,101180.53
2023-02-20T06:17:26.148Z,101185.75
2023-02-20T06:20:28.996Z,101189.25
2023-02-20T06:23:31.840Z,101187.47
2023-02-20T06:26:40.803Z,101183.06
2023-02-20T06:29:43.992Z,101184.81
2023-02-20T06:32:46.579Z,101183.09
2023-02-20T06:35:49.488Z,101184.75
2023-02-20T06:38:52.541Z,101189.09
2023-02-20T06:41:56.000Z,101183.88
2023-02-20T06:45:01.357Z,101185.59
2023-02-20T06:48:04.780Z,101192.44
2023-02-20T06:51:07.472Z,101193.28
2023-02-20T06:54:12.743Z,101190.59
2023-02-20T06:57:15.692Z,101185.41
2023-02-20T07:00:19.634Z,101193.28
2023-02-20T07:03:22.877Z,101196.78
2023-02-20T07:06:26.743Z,101194.91
2023-02-20T07:09:29.700Z,101196.63
2023-02-20T07:12:33.219Z,101189.53
2023-02-20T07:15:35.909Z,101180.78
2023-02-20T07:18:42.024Z,101182.56
2023-02-20T07:21:47.250Z,101191.34
2023-02-20T07:24:54.310Z,101187.84
2023-02-20T07:27:56.977Z,101181.72
2023-02-20T07:30:59.923Z,101185.31
2023-02-20T07:34:02.508Z,101176.47
2023-02-20T07:37:09.835Z,101188.59
2023-02-20T07:40:13.243Z,101198.12
2023-02-20T07:43:16.226Z,101191.91
2023-02-20T07:46:20.411Z,101195.12
2023-02-20T07:49:23.655Z,101180.44
2023-02-20T07:52:26.961Z,101200.47
2023-02-20T07:55:29.902Z,101182.03
2023-02-20T07:58:32.778Z,101178.53
2023-02-20T08:01:36.429Z,101177.03
2023-02-20T08:04:39.434Z,101191.06
2023-02-20T08:07:49.869Z,101189.87
2023-02-20T08:11:03.633Z,101181.94
2023-02-20T08:14:13.244Z,101187.28
2023-02-20T08:17:16.262Z,101179.22
2023-02-20T08:20:21.210Z,101176.97
2023-02-20T08:23:24.728Z,101181.38
2023-02-20T08:26:28.438Z,101178.63
2023-02-20T08:29:31.368Z,101188.72
2023-02-20T08:32:34.014Z,101180.38
2023-02-20T08:35:37.024Z,101173.25
2023-02-20T08:38:39.777Z,101169.34
2023-02-20T08:41:44.469Z,101175.41
2023-02-20T08:44:47.034Z,101157.72
2023-02-20T08:47:50.887Z,101165.34
2023-02-20T08:50:53.781Z,101159.03
2023-02-20T08:53:58.005Z,101157.97
2023-02-20T08:57:00.695Z,101151.28
2023-02-20T09:00:07.199Z,101154.81
2023-02-20T09:03:10.134Z,101159.28
2023-02-20T09:06:13.220Z,101154.09
2023-02-20T09:09:16.578Z,101152.53
2023-02-20T09:12:19.492Z,101141.47
2023-02-20T09:15:22.349Z,101148.16
2023-02-20T09:18:25.259Z,101134.53
2023-02-20T09:21:30.839Z,101132.56
2023-02-20T09:24:34.524Z,101135.06
2023-02-20T09:27:37.376Z,101119.84
2023-02-20T09:30:40.559Z,101114.44
2023-02-20T09:33:51.385Z,101116.66
2023-02-20T09:36:55.631Z,101112.81
2023-02-20T09:39:58.324Z,101111.25
2023-02-20T09:43:01.189Z,101122.00
2023-02-20T09:46:13.041Z,101112.06
2023-02-20T09:49:20.733Z,101121.94
2023-02-20T09:52:25.552Z,101108.47
2023-02-20T09:55:38.519Z,101113.66
2023-02-20T09:58:50.268Z,101101.25
2023-02-20T10:02:03.088Z,101094.16
2023-02-20T10:05:23.020Z,101094.19
2023-02-20T10:08:25.863Z,101073.87
2023-02-20T10:11:56.424Z,101071.78
2023-02-20T10:15:01.923Z,101067.53
2023-02-20T10:18:15.450Z,101061.53
2023-02-20T10:21:45.747Z,101061.31
2023-02-20T10:25:20.280Z,101070.19
2023-02-20T10:28:23.653Z,101061.47
2023-02-20T10:31:35.629Z,101054.78
2023-02-20T10:34:42.985Z,101052.28
2023-02-20T10:37:56.272Z,101055.28
2023-02-20T10:41:09.487Z,101040.75
2023-02-20T10:44:26.034Z,101027.09
2023-02-20T10:47:43.053Z,101020.81
2023-02-20T10:50:54.331Z,101009.87
2023-02-20T10:54:04.747Z,101001.59
2023-02-20T10:57:36.721Z,100994.31
2023-02-20T11:00:42.835Z,100995.47
2023-02-20T11:04:15.676Z,100975.97
2023-02-20T11:07:19.859Z,100976.56
2023-02-20T11:10:23.263Z,100971.88
2023-02-20T11:13:26.535Z,100978.84
2023-02-20T11:16:36.123Z,100958.53
2023-02-20T11:19:43.750Z,100945.34
2023-02-20T11:22:50.234Z,100932.25
2023-02-20T11:25:52.937Z,100930.38
2023-02-20T11:29:16.173Z,100924.87
2023-02-20T11:32:24.479Z,100928.91
2023-02-20T11:35:32.949Z,100932.09
2023-02-20T11:38:37.260Z,100930.84
2023-02-20T11:41:40.939Z,100917.75
2023-02-20T11:44:44.026Z,100908.03
2023-02-20T11:48:05.829Z,100888.84
2023-02-20T11:51:35.560Z,100891.94
2023-02-20T11:54:38.410Z,100886.03
2023-02-20T11:57:45.046Z,100872.44
2023-02-20T12:00:49.687Z,100870.53
2023-02-20T12:03:57.838Z,100867.09
2023-02-20T12:07:00.495Z,100856.09
2023-02-20T12:10:21.785Z,100852.41
2023-02-20T12:13:25.051Z,100834.25
2023-02-20T12:16:31.385Z,100830.50
2023-02-20T12:19:47.670Z,100825.84
2023-02-20T12:23:28.627Z,100818.88
2023-02-20T12:26:54.021Z,100813.41
2023-02-20T12:30:15.987Z,100803.41
2023-02-20T12:34:02.088Z,100813.00
2023-02-20T12:37:46.682Z,100793.59
2023-02-20T12:40:59.149Z,100794.91
2023-02-20T12:44:29.206Z,100797.56
2023-02-20T12:47:34.220Z,100798.25
2023-02-20T12:50:47.174Z,100792.53
2023-02-20T12:54:16.157Z,100788.47
2023-02-20T12:57:53.886Z,100803.00
2023-02-20T13:01:11.243Z,100789.69
2023-02-20T13:04:25.815Z,100790.06
2023-02-20T13:07:33.521Z,100798.38
2023-02-20T13:11:02.902Z,100792.59
2023-02-20T13:14:14.941Z,100781.91
2023-02-20T13:17:32.609Z,100792.56
2023-02-20T13:20:44.939Z,100783.81
2023-02-20T13:35:41.517Z,100752.19
2023-02-20T13:39:20.071Z,100756.16
2023-02-20T13:42:31.918Z,100752.66
2023-02-20T13:45:45.144Z,100745.66
2023-02-20T13:48:53.018Z,100758.19
2023-02-20T13:51:56.548Z,100745.78
2023-02-20T13:55:03.026Z,100752.31
2023-02-20T13:58:13.284Z,100724.75
2023-02-20T14:01:15.938Z,100716.72
2023-02-20T14:04:22.351Z,100720.19
2023-02-20T14:07:31.889Z,100719.16
2023-02-20T14:10:38.152Z,100700.78
2023-02-20T14:13:46.551Z,100717.88
2023-02-20T14:16:49.621Z,100718.91
2023-02-20T14:20:15.015Z,100732.06
2023-02-20T14:23:27.806Z,100732.25
2023-02-20T14:26:35.015Z,100719.47
2023-02-20T14:29:38.855Z,100718.47
2023-02-20T14:32:53.386Z,100715.81
2023-02-20T14:36:11.691Z,100699.22
2023-02-20T14:39:39.491Z,100701.81
2023-02-20T14:42:45.305Z,100679.34
2023-02-20T14:46:00.461Z,100680.50
2023-02-20T14:49:09.612Z,100690.72
2023-02-20T14:52:30.319Z,100687.31
2023-02-20T14:55:33.312Z,100686.22
2023-02-20T14:58:38.587Z,100695.19
2023-02-20T15:01:41.843Z,100683.44
2023-02-20T15:04:48.932Z,100684.06
2023-02-20T15:07:52.108Z,100678.94
2023-02-20T15:10:57.899Z,100678.75
2023-02-20T15:14:02.273Z,100670.50
2023-02-20T15:17:12.678Z,100672.75
2023-02-20T15:20:37.619Z,100663.50
2023-02-20T15:23:43.793Z,100663.87
2023-02-20T15:26:47.248Z,100657.25
2023-02-20T15:30:09.216Z,100649.44
2023-02-20T15:33:12.567Z,100647.13
2023-02-20T15:36:19.506Z,100638.31
2023-02-20T15:39:22.981Z,100634.03
2023-02-20T15:42:26.202Z,100634.88
2023-02-20T15:45:31.093Z,100635.59
2023-02-20T15:48:33.956Z,100625.75
2023-02-20T15:51:40.172Z,100617.25
2023-02-20T15:54:54.536Z,100607.63
2023-02-20T15:57:58.969Z,100595.66
2023-02-20T16:01:01.662Z,100597.13
2023-02-20T16:04:09.295Z,100594.09
2023-02-20T16:07:11.964Z,100593.78
2023-02-20T16:10:17.621Z,100588.81
2023-02-20T16:13:38.898Z,100579.59
2023-02-20T16:16:44.353Z,100575.00
2023-02-20T16:19:47.175Z,100577.47
2023-02-20T22:40:17.568Z,100231.41
2023-02-20T22:43:40.011Z,100231.41
2023-02-20T22:47:01.430Z,100230.75
